sensor_id;sensor_type;location;lat;lon;timestamp;P1;durP1;ratioP1;P2;durP2;ratioP2
11151;SDS011;5630;49.342;10.802;2023-09-19T00:01:32;3.33;;;1.70;;
11151;SDS011;5630;49.342;10.802;2023-09-19T00:03:58;2.40;;;1.87;;
11151;SDS011;5630;49.342;10.802;2023-09-19T00:06:24;4.83;;;1.70;;
11151;SDS011;5630;49.342;10.802;2023-09-19T00:08:51;3.57;;;1.60;;
11151;SDS011;5630;49.342;10.802;2023-09-19T00:11:17;5.47;;;1.73;;
11151;SDS011;5630;49.342;10.802;2023-09-19T00:13:42;3.90;;;1.53;;
11151;SDS011;5630;49.342;10.802;2023-09-19T00:16:10;5.07;;;1.73;;
11151;SDS011;5630;49.342;10.802;2023-09-19T00:18:37;2.87;;;1.73;;
11151;SDS011;5630;49.342;10.802;2023-09-19T00:21:03;2.23;;;1.60;;
11151;SDS011;5630;49.342;10.802;2023-09-19T00:23:32;4.63;;;1.60;;
11151;SDS011;5630;49.342;10.802;2023-09-19T00:25:58;2.33;;;1.50;;
11151;SDS011;5630;49.342;10.802;2023-09-19T00:28:25;2.17;;;1.50;;
11151;SDS011;5630;49.342;10.802;2023-09-19T00:30:51;1.80;;;1.33;;
11151;SDS011;5630;49.342;10.802;2023-09-19T00:33:16;2.70;;;1.30;;
11151;SDS011;5630;49.342;10.802;2023-09-19T00:35:53;1.90;;;1.40;;
11151;SDS011;5630;49.342;10.802;2023-09-19T00:38:20;2.60;;;1.63;;
11151;SDS011;5630;49.342;10.802;2023-09-19T00:40:48;2.83;;;1.20;;
11151;SDS011;5630;49.342;10.802;2023-09-19T00:43:14;1.83;;;1.47;;
11151;SDS011;5630;49.342;10.802;2023-09-19T00:45:42;1.93;;;1.40;;
11151;SDS011;5630;49.342;10.802;2023-09-19T00:48:09;4.47;;;1.57;;
11151;SDS011;5630;49.342;10.802;2023-09-19T00:50:35;1.90;;;1.50;;
11151;SDS011;5630;49.342;10.802;2023-09-19T00:53:01;2.13;;;1.37;;
11151;SDS011;5630;49.342;10.802;2023-09-19T00:55:34;3.83;;;1.67;;
11151;SDS011;5630;49.342;10.802;2023-09-19T00:58:02;2.00;;;1.33;;
11151;SDS011;5630;49.342;10.802;2023-09-19T01:00:28;1.93;;;1.50;;
11151;SDS011;5630;49.342;10.802;2023-09-19T01:02:54;2.10;;;1.57;;
11151;SDS011;5630;49.342;10.802;2023-09-19T01:05:20;3.30;;;1.40;;
11151;SDS011;5630;49.342;10.802;2023-09-19T01:07:46;2.03;;;1.33;;
11151;SDS011;5630;49.342;10.802;2023-09-19T01:10:16;2.03;;;1.60;;
11151;SDS011;5630;49.342;10.802;2023-09-19T01:18:11;2.70;;;1.40;;
11151;SDS011;5630;49.342;10.802;2023-09-19T01:20:53;3.30;;;1.50;;
11151;SDS011;5630;49.342;10.802;2023-09-19T01:27:05;1.77;;;1.37;;
11151;SDS011;5630;49.342;10.802;2023-09-19T01:29:51;5.47;;;1.60;;
11151;SDS011;5630;49.342;10.802;2023-09-19T01:32:19;1.43;;;1.27;;
11151;SDS011;5630;49.342;10.802;2023-09-19T01:34:47;1.53;;;1.37;;
11151;SDS011;5630;49.342;10.802;2023-09-19T01:37:18;3.83;;;1.30;;
11151;SDS011;5630;49.342;10.802;2023-09-19T01:39:49;1.30;;;1.20;;
11151;SDS011;5630;49.342;10.802;2023-09-19T01:47:53;1.47;;;1.27;;
11151;SDS011;5630;49.342;10.802;2023-09-19T01:50:29;3.63;;;1.60;;
11151;SDS011;5630;49.342;10.802;2023-09-19T01:52:59;3.77;;;1.57;;
11151;SDS011;5630;49.342;10.802;2023-09-19T01:55:29;3.90;;;1.40;;
11151;SDS011;5630;49.342;10.802;2023-09-19T01:58:04;1.50;;;1.33;;
11151;SDS011;5630;49.342;10.802;2023-09-19T02:00:34;3.33;;;1.50;;
11151;SDS011;5630;49.342;10.802;2023-09-19T02:03:02;2.50;;;1.50;;
11151;SDS011;5630;49.342;10.802;2023-09-19T02:05:28;2.63;;;1.10;;
11151;SDS011;5630;49.342;10.802;2023-09-19T02:07:54;1.93;;;1.40;;
11151;SDS011;5630;49.342;10.802;2023-09-19T02:10:21;2.07;;;1.30;;
11151;SDS011;5630;49.342;10.802;2023-09-19T02:12:48;2.33;;;1.20;;
11151;SDS011;5630;49.342;10.802;2023-09-19T02:15:14;2.17;;;1.60;;
11151;SDS011;5630;49.342;10.802;2023-09-19T02:17:41;2.53;;;1.50;;
11151;SDS011;5630;49.342;10.802;2023-09-19T02:20:08;2.57;;;1.50;;
11151;SDS011;5630;49.342;10.802;2023-09-19T02:22:40;6.77;;;1.70;;
11151;SDS011;5630;49.342;10.802;2023-09-19T02:25:07;5.23;;;1.60;;
11151;SDS011;5630;49.342;10.802;2023-09-19T02:27:33;1.90;;;1.40;;
11151;SDS011;5630;49.342;10.802;2023-09-19T02:29:59;3.57;;;1.37;;
11151;SDS011;5630;49.342;10.802;2023-09-19T02:32:27;4.43;;;1.53;;
11151;SDS011;5630;49.342;10.802;2023-09-19T02:34:55;1.80;;;1.53;;
11151;SDS011;5630;49.342;10.802;2023-09-19T02:37:20;2.40;;;1.60;;
11151;SDS011;5630;49.342;10.802;2023-09-19T02:39:46;3.07;;;1.33;;
11151;SDS011;5630;49.342;10.802;2023-09-19T02:42:12;4.43;;;1.50;;
11151;SDS011;5630;49.342;10.802;2023-09-19T02:44:38;2.23;;;1.57;;
11151;SDS011;5630;49.342;10.802;2023-09-19T02:47:05;3.27;;;1.60;;
11151;SDS011;5630;49.342;10.802;2023-09-19T02:49:30;3.13;;;1.63;;
11151;SDS011;5630;49.342;10.802;2023-09-19T02:51:56;5.60;;;1.73;;
11151;SDS011;5630;49.342;10.802;2023-09-19T02:54:23;2.33;;;1.43;;
11151;SDS011;5630;49.342;10.802;2023-09-19T02:56:49;3.10;;;1.70;;
11151;SDS011;5630;49.342;10.802;2023-09-19T02:59:15;2.00;;;1.53;;
11151;SDS011;5630;49.342;10.802;2023-09-19T03:01:42;4.13;;;1.70;;
11151;SDS011;5630;49.342;10.802;2023-09-19T03:04:09;3.27;;;1.80;;
11151;SDS011;5630;49.342;10.802;2023-09-19T03:06:36;3.67;;;1.63;;
11151;SDS011;5630;49.342;10.802;2023-09-19T03:09:03;2.73;;;1.40;;
11151;SDS011;5630;49.342;10.802;2023-09-19T03:11:31;3.57;;;1.80;;
11151;SDS011;5630;49.342;10.802;2023-09-19T03:13:56;3.30;;;1.70;;
11151;SDS011;5630;49.342;10.802;2023-09-19T03:16:23;2.17;;;1.60;;
11151;SDS011;5630;49.342;10.802;2023-09-19T03:18:50;3.10;;;1.60;;
11151;SDS011;5630;49.342;10.802;2023-09-19T03:21:16;2.77;;;1.80;;
11151;SDS011;5630;49.342;10.802;2023-09-19T03:23:42;3.40;;;1.70;;
11151;SDS011;5630;49.342;10.802;2023-09-19T03:26:10;3.07;;;1.53;;
11151;SDS011;5630;49.342;10.802;2023-09-19T03:28:37;3.63;;;1.90;;
11151;SDS011;5630;49.342;10.802;2023-09-19T03:31:04;2.13;;;1.60;;
11151;SDS011;5630;49.342;10.802;2023-09-19T03:33:30;3.00;;;1.60;;
11151;SDS011;5630;49.342;10.802;2023-09-19T03:35:57;3.33;;;1.73;;
11151;SDS011;5630;49.342;10.802;2023-09-19T03:38:24;2.70;;;1.60;;
11151;SDS011;5630;49.342;10.802;2023-09-19T03:40:50;2.50;;;1.70;;
11151;SDS011;5630;49.342;10.802;2023-09-19T03:43:16;3.03;;;1.80;;
11151;SDS011;5630;49.342;10.802;2023-09-19T03:45:42;2.67;;;1.70;;
11151;SDS011;5630;49.342;10.802;2023-09-19T03:48:11;3.23;;;1.50;;
11151;SDS011;5630;49.342;10.802;2023-09-19T03:50:37;3.97;;;1.60;;
11151;SDS011;5630;49.342;10.802;2023-09-19T03:53:02;6.50;;;1.80;;
11151;SDS011;5630;49.342;10.802;2023-09-19T03:55:28;3.33;;;1.63;;
11151;SDS011;5630;49.342;10.802;2023-09-19T03:57:55;3.07;;;1.80;;
11151;SDS011;5630;49.342;10.802;2023-09-19T04:00:21;3.17;;;1.80;;
11151;SDS011;5630;49.342;10.802;2023-09-19T04:02:49;2.60;;;1.77;;
11151;SDS011;5630;49.342;10.802;2023-09-19T04:05:16;6.53;;;1.63;;
11151;SDS011;5630;49.342;10.802;2023-09-19T04:07:42;4.93;;;1.90;;
11151;SDS011;5630;49.342;10.802;2023-09-19T04:10:07;2.30;;;1.70;;
11151;SDS011;5630;49.342;10.802;2023-09-19T04:12:35;5.10;;;2.07;;
11151;SDS011;5630;49.342;10.802;2023-09-19T04:15:00;2.40;;;1.70;;
11151;SDS011;5630;49.342;10.802;2023-09-19T04:17:26;5.03;;;1.63;;
11151;SDS011;5630;49.342;10.802;2023-09-19T04:19:51;3.23;;;1.90;;
11151;SDS011;5630;49.342;10.802;2023-09-19T04:22:18;6.33;;;1.60;;
11151;SDS011;5630;49.342;10.802;2023-09-19T04:24:43;2.83;;;1.60;;
11151;SDS011;5630;49.342;10.802;2023-09-19T04:27:09;2.80;;;1.70;;
11151;SDS011;5630;49.342;10.802;2023-09-19T04:29:35;3.07;;;1.73;;
11151;SDS011;5630;49.342;10.802;2023-09-19T04:32:00;4.07;;;2.03;;
11151;SDS011;5630;49.342;10.802;2023-09-19T04:34:29;2.93;;;1.80;;
11151;SDS011;5630;49.342;10.802;2023-09-19T04:36:55;3.17;;;2.07;;
11151;SDS011;5630;49.342;10.802;2023-09-19T04:39:23;3.07;;;1.67;;
11151;SDS011;5630;49.342;10.802;2023-09-19T04:41:50;2.40;;;1.70;;
11151;SDS011;5630;49.342;10.802;2023-09-19T04:44:16;4.37;;;1.90;;
11151;SDS011;5630;49.342;10.802;2023-09-19T04:46:43;4.37;;;2.00;;
11151;SDS011;5630;49.342;10.802;2023-09-19T04:49:09;3.30;;;1.87;;
11151;SDS011;5630;49.342;10.802;2023-09-19T04:51:35;2.37;;;2.00;;
11151;SDS011;5630;49.342;10.802;2023-09-19T04:54:01;4.20;;;2.10;;
11151;SDS011;5630;49.342;10.802;2023-09-19T04:56:28;6.23;;;1.80;;
11151;SDS011;5630;49.342;10.802;2023-09-19T04:58:53;3.03;;;1.90;;
11151;SDS011;5630;49.342;10.802;2023-09-19T05:01:19;3.37;;;1.90;;
11151;SDS011;5630;49.342;10.802;2023-09-19T05:03:48;4.57;;;1.97;;
11151;SDS011;5630;49.342;10.802;2023-09-19T05:06:17;4.67;;;1.97;;
11151;SDS011;5630;49.342;10.802;2023-09-19T05:08:43;6.13;;;1.90;;
11151;SDS011;5630;49.342;10.802;2023-09-19T05:11:08;4.73;;;1.87;;
11151;SDS011;5630;49.342;10.802;2023-09-19T05:13:34;3.00;;;1.77;;
11151;SDS011;5630;49.342;10.802;2023-09-19T05:16:03;2.77;;;1.50;;
11151;SDS011;5630;49.342;10.802;2023-09-19T05:18:28;2.57;;;1.83;;
11151;SDS011;5630;49.342;10.802;2023-09-19T05:20:54;2.63;;;1.80;;
11151;SDS011;5630;49.342;10.802;2023-09-19T05:23:19;4.17;;;1.77;;
11151;SDS011;5630;49.342;10.802;2023-09-19T05:25:46;3.00;;;1.80;;
11151;SDS011;5630;49.342;10.802;2023-09-19T05:28:11;3.13;;;2.00;;
11151;SDS011;5630;49.342;10.802;2023-09-19T05:30:39;3.47;;;1.87;;
11151;SDS011;5630;49.342;10.802;2023-09-19T05:33:08;2.00;;;1.60;;
11151;SDS011;5630;49.342;10.802;2023-09-19T05:35:33;3.70;;;1.73;;
11151;SDS011;5630;49.342;10.802;2023-09-19T05:38:01;3.63;;;1.80;;
11151;SDS011;5630;49.342;10.802;2023-09-19T05:40:27;2.73;;;1.77;;
11151;SDS011;5630;49.342;10.802;2023-09-19T05:42:53;2.43;;;2.00;;
11151;SDS011;5630;49.342;10.802;2023-09-19T05:45:18;5.43;;;1.83;;
11151;SDS011;5630;49.342;10.802;2023-09-19T05:47:47;2.60;;;1.77;;
11151;SDS011;5630;49.342;10.802;2023-09-19T05:50:15;2.43;;;1.83;;
11151;SDS011;5630;49.342;10.802;2023-09-19T05:52:41;5.17;;;2.10;;
11151;SDS011;5630;49.342;10.802;2023-09-19T05:55:08;3.07;;;1.80;;
11151;SDS011;5630;49.342;10.802;2023-09-19T05:57:34;5.53;;;2.00;;
11151;SDS011;5630;49.342;10.802;2023-09-19T06:00:00;174.53;;;124.00;;
11151;SDS011;5630;49.342;10.802;2023-09-19T06:02:25;168.67;;;115.93;;
11151;SDS011;5630;49.342;10.802;2023-09-19T06:04:55;150.17;;;108.23;;
11151;SDS011;5630;49.342;10.802;2023-09-19T06:07:21;98.23;;;71.33;;
11151;SDS011;5630;49.342;10.802;2023-09-19T06:09:48;92.60;;;69.80;;
11151;SDS011;5630;49.342;10.802;2023-09-19T06:12:14;100.33;;;71.47;;
11151;SDS011;5630;49.342;10.802;2023-09-19T06:14:43;23.67;;;17.20;;
11151;SDS011;5630;49.342;10.802;2023-09-19T06:17:08;58.77;;;41.93;;
11151;SDS011;5630;49.342;10.802;2023-09-19T06:19:34;3.47;;;2.20;;
11151;SDS011;5630;49.342;10.802;2023-09-19T06:21:59;2.77;;;1.97;;
11151;SDS011;5630;49.342;10.802;2023-09-19T06:24:25;2.83;;;1.83;;
11151;SDS011;5630;49.342;10.802;2023-09-19T06:26:51;4.97;;;2.30;;
11151;SDS011;5630;49.342;10.802;2023-09-19T06:29:18;3.10;;;2.17;;
11151;SDS011;5630;49.342;10.802;2023-09-19T06:31:45;3.03;;;2.23;;
11151;SDS011;5630;49.342;10.802;2023-09-19T06:34:12;4.43;;;2.57;;
11151;SDS011;5630;49.342;10.802;2023-09-19T06:36:40;6.30;;;3.13;;
11151;SDS011;5630;49.342;10.802;2023-09-19T06:39:06;8.60;;;5.70;;
11151;SDS011;5630;49.342;10.802;2023-09-19T06:41:31;10.33;;;5.63;;
11151;SDS011;5630;49.342;10.802;2023-09-19T06:43:57;6.43;;;2.83;;
11151;SDS011;5630;49.342;10.802;2023-09-19T06:46:23;4.03;;;2.50;;
11151;SDS011;5630;49.342;10.802;2023-09-19T06:48:49;4.57;;;2.90;;
11151;SDS011;5630;49.342;10.802;2023-09-19T06:51:17;4.33;;;2.10;;
11151;SDS011;5630;49.342;10.802;2023-09-19T06:53:43;5.67;;;2.60;;
11151;SDS011;5630;49.342;10.802;2023-09-19T06:56:08;7.43;;;3.30;;
11151;SDS011;5630;49.342;10.802;2023-09-19T06:58:34;5.27;;;3.57;;
11151;SDS011;5630;49.342;10.802;2023-09-19T07:01:01;6.03;;;3.17;;
11151;SDS011;5630;49.342;10.802;2023-09-19T07:03:28;3.87;;;2.17;;
11151;SDS011;5630;49.342;10.802;2023-09-19T07:05:53;9.00;;;3.57;;
11151;SDS011;5630;49.342;10.802;2023-09-19T07:08:21;5.60;;;3.00;;
11151;SDS011;5630;49.342;10.802;2023-09-19T07:10:46;2.67;;;1.70;;
11151;SDS011;5630;49.342;10.802;2023-09-19T07:13:17;5.37;;;2.60;;
11151;SDS011;5630;49.342;10.802;2023-09-19T07:15:43;2.90;;;2.30;;
11151;SDS011;5630;49.342;10.802;2023-09-19T07:18:13;7.97;;;3.57;;
11151;SDS011;5630;49.342;10.802;2023-09-19T07:20:41;4.37;;;2.20;;
11151;SDS011;5630;49.342;10.802;2023-09-19T07:23:13;5.77;;;3.43;;
11151;SDS011;5630;49.342;10.802;2023-09-19T07:25:43;6.43;;;3.90;;
11151;SDS011;5630;49.342;10.802;2023-09-19T07:28:08;4.80;;;2.37;;
11151;SDS011;5630;49.342;10.802;2023-09-19T07:30:35;3.13;;;1.70;;
11151;SDS011;5630;49.342;10.802;2023-09-19T07:33:02;5.20;;;2.30;;
11151;SDS011;5630;49.342;10.802;2023-09-19T07:35:30;7.03;;;2.20;;
11151;SDS011;5630;49.342;10.802;2023-09-19T07:37:56;4.47;;;2.00;;
11151;SDS011;5630;49.342;10.802;2023-09-19T07:40:23;3.37;;;2.00;;
11151;SDS011;5630;49.342;10.802;2023-09-19T07:42:49;6.63;;;2.10;;
11151;SDS011;5630;49.342;10.802;2023-09-19T07:45:15;4.87;;;2.13;;
11151;SDS011;5630;49.342;10.802;2023-09-19T07:47:48;3.23;;;1.77;;
11151;SDS011;5630;49.342;10.802;2023-09-19T07:50:18;4.43;;;2.10;;
11151;SDS011;5630;49.342;10.802;2023-09-19T07:52:45;3.30;;;2.00;;
11151;SDS011;5630;49.342;10.802;2023-09-19T07:55:11;4.47;;;2.33;;
11151;SDS011;5630;49.342;10.802;2023-09-19T07:57:41;4.03;;;2.20;;
11151;SDS011;5630;49.342;10.802;2023-09-19T08:00:07;2.77;;;1.77;;
11151;SDS011;5630;49.342;10.802;2023-09-19T08:02:35;4.43;;;2.30;;
11151;SDS011;5630;49.342;10.802;2023-09-19T08:05:03;4.10;;;2.10;;
11151;SDS011;5630;49.342;10.802;2023-09-19T08:07:31;2.87;;;1.97;;
11151;SDS011;5630;49.342;10.802;2023-09-19T08:10:01;2.70;;;1.80;;
11151;SDS011;5630;49.342;10.802;2023-09-19T08:12:27;4.53;;;2.13;;
11151;SDS011;5630;49.342;10.802;2023-09-19T08:14:55;4.00;;;2.03;;
11151;SDS011;5630;49.342;10.802;2023-09-19T08:17:20;5.57;;;2.00;;
11151;SDS011;5630;49.342;10.802;2023-09-19T08:19:48;5.20;;;1.97;;
11151;SDS011;5630;49.342;10.802;2023-09-19T08:22:14;5.13;;;1.93;;
11151;SDS011;5630;49.342;10.802;2023-09-19T08:24:42;3.10;;;2.00;;
11151;SDS011;5630;49.342;10.802;2023-09-19T08:27:08;4.67;;;1.90;;
11151;SDS011;5630;49.342;10.802;2023-09-19T08:29:35;7.63;;;2.37;;
11151;SDS011;5630;49.342;10.802;2023-09-19T08:32:00;2.70;;;1.90;;
11151;SDS011;5630;49.342;10.802;2023-09-19T08:34:26;5.50;;;1.90;;
11151;SDS011;5630;49.342;10.802;2023-09-19T08:36:52;3.97;;;2.63;;
11151;SDS011;5630;49.342;10.802;2023-09-19T08:39:21;2.70;;;2.00;;
11151;SDS011;5630;49.342;10.802;2023-09-19T08:42:00;4.57;;;1.90;;
11151;SDS011;5630;49.342;10.802;2023-09-19T08:44:26;4.23;;;2.17;;
11151;SDS011;5630;49.342;10.802;2023-09-19T08:46:59;4.13;;;1.80;;
11151;SDS011;5630;49.342;10.802;2023-09-19T08:52:27;2.83;;;1.83;;
11151;SDS011;5630;49.342;10.802;2023-09-19T08:54:59;4.33;;;1.80;;
11151;SDS011;5630;49.342;10.802;2023-09-19T08:57:29;3.87;;;1.97;;
11151;SDS011;5630;49.342;10.802;2023-09-19T08:59:59;3.50;;;2.10;;
11151;SDS011;5630;49.342;10.802;2023-09-19T09:02:26;2.90;;;1.60;;
11151;SDS011;5630;49.342;10.802;2023-09-19T09:04:53;3.13;;;1.73;;
11151;SDS011;5630;49.342;10.802;2023-09-19T09:07:22;3.70;;;1.63;;
11151;SDS011;5630;49.342;10.802;2023-09-19T09:09:48;3.13;;;1.70;;
11151;SDS011;5630;49.342;10.802;2023-09-19T09:12:13;3.43;;;1.73;;
11151;SDS011;5630;49.342;10.802;2023-09-19T09:14:41;3.60;;;1.73;;
11151;SDS011;5630;49.342;10.802;2023-09-19T09:17:11;4.33;;;1.83;;
11151;SDS011;5630;49.342;10.802;2023-09-19T09:19:37;3.97;;;1.80;;
11151;SDS011;5630;49.342;10.802;2023-09-19T09:22:09;6.07;;;3.13;;
11151;SDS011;5630;49.342;10.802;2023-09-19T09:24:36;7.43;;;2.27;;
11151;SDS011;5630;49.342;10.802;2023-09-19T09:27:06;5.00;;;3.40;;
11151;SDS011;5630;49.342;10.802;2023-09-19T09:29:53;5.30;;;2.80;;
11151;SDS011;5630;49.342;10.802;2023-09-19T09:32:28;4.60;;;3.20;;
11151;SDS011;5630;49.342;10.802;2023-09-19T09:34:59;4.87;;;2.53;;
11151;SDS011;5630;49.342;10.802;2023-09-19T09:37:26;5.33;;;2.90;;
11151;SDS011;5630;49.342;10.802;2023-09-19T09:39:56;5.33;;;2.70;;
11151;SDS011;5630;49.342;10.802;2023-09-19T09:42:28;3.57;;;2.30;;
11151;SDS011;5630;49.342;10.802;2023-09-19T09:47:57;2.67;;;2.07;;
11151;SDS011;5630;49.342;10.802;2023-09-19T09:50:25;4.10;;;2.17;;
11151;SDS011;5630;49.342;10.802;2023-09-19T09:53:34;3.30;;;1.53;;
11151;SDS011;5630;49.342;10.802;2023-09-19T09:56:04;2.90;;;1.80;;
11151;SDS011;5630;49.342;10.802;2023-09-19T09:58:31;2.77;;;1.67;;
11151;SDS011;5630;49.342;10.802;2023-09-19T10:01:01;2.80;;;1.53;;
11151;SDS011;5630;49.342;10.802;2023-09-19T10:03:34;2.13;;;1.93;;
11151;SDS011;5630;49.342;10.802;2023-09-19T10:06:07;2.13;;;1.90;;
11151;SDS011;5630;49.342;10.802;2023-09-19T10:09:06;5.50;;;1.70;;
11151;SDS011;5630;49.342;10.802;2023-09-19T10:11:45;4.33;;;2.03;;
11151;SDS011;5630;49.342;10.802;2023-09-19T10:14:18;7.10;;;2.00;;
11151;SDS011;5630;49.342;10.802;2023-09-19T10:16:49;4.13;;;2.10;;
11151;SDS011;5630;49.342;10.802;2023-09-19T10:19:21;3.20;;;1.87;;
11151;SDS011;5630;49.342;10.802;2023-09-19T10:21:53;4.23;;;2.20;;
11151;SDS011;5630;49.342;10.802;2023-09-19T10:24:21;2.53;;;1.80;;
11151;SDS011;5630;49.342;10.802;2023-09-19T10:26:48;2.83;;;1.70;;
11151;SDS011;5630;49.342;10.802;2023-09-19T10:29:15;4.70;;;1.80;;
11151;SDS011;5630;49.342;10.802;2023-09-19T10:31:43;2.40;;;1.60;;
11151;SDS011;5630;49.342;10.802;2023-09-19T10:34:13;3.27;;;1.80;;
11151;SDS011;5630;49.342;10.802;2023-09-19T10:36:40;5.43;;;1.90;;
11151;SDS011;5630;49.342;10.802;2023-09-19T10:39:10;4.00;;;1.77;;
11151;SDS011;5630;49.342;10.802;2023-09-19T10:41:39;3.93;;;2.00;;
11151;SDS011;5630;49.342;10.802;2023-09-19T10:44:05;2.57;;;1.90;;
11151;SDS011;5630;49.342;10.802;2023-09-19T10:46:31;2.67;;;1.67;;
11151;SDS011;5630;49.342;10.802;2023-09-19T10:49:01;4.90;;;1.87;;
11151;SDS011;5630;49.342;10.802;2023-09-19T10:51:39;2.33;;;1.63;;
11151;SDS011;5630;49.342;10.802;2023-09-19T10:54:11;2.87;;;1.63;;
11151;SDS011;5630;49.342;10.802;2023-09-19T10:56:39;7.00;;;1.90;;
11151;SDS011;5630;49.342;10.802;2023-09-19T10:59:10;6.83;;;1.93;;
11151;SDS011;5630;49.342;10.802;2023-09-19T11:01:47;4.47;;;1.77;;
11151;SDS011;5630;49.342;10.802;2023-09-19T11:09:45;5.03;;;1.93;;
11151;SDS011;5630;49.342;10.802;2023-09-19T11:13:09;3.33;;;1.67;;
11151;SDS011;5630;49.342;10.802;2023-09-19T11:26:41;10.03;;;1.97;;
11151;SDS011;5630;49.342;10.802;2023-09-19T11:31:58;2.53;;;1.50;;
11151;SDS011;5630;49.342;10.802;2023-09-19T11:37:02;3.70;;;1.50;;
11151;SDS011;5630;49.342;10.802;2023-09-19T11:39:31;2.60;;;1.47;;
11151;SDS011;5630;49.342;10.802;2023-09-19T11:41:58;4.70;;;1.50;;
11151;SDS011;5630;49.342;10.802;2023-09-19T11:46:55;4.67;;;1.60;;
11151;SDS011;5630;49.342;10.802;2023-09-19T11:49:27;2.17;;;1.67;;
11151;SDS011;5630;49.342;10.802;2023-09-19T11:51:56;2.67;;;1.50;;
11151;SDS011;5630;49.342;10.802;2023-09-19T11:54:25;8.03;;;1.70;;
11151;SDS011;5630;49.342;10.802;2023-09-19T11:56:56;4.63;;;1.90;;
11151;SDS011;5630;49.342;10.802;2023-09-19T11:59:23;2.63;;;1.70;;
11151;SDS011;5630;49.342;10.802;2023-09-19T12:01:56;1.93;;;1.47;;
11151;SDS011;5630;49.342;10.802;2023-09-19T12:04:35;2.30;;;1.50;;
11151;SDS011;5630;49.342;10.802;2023-09-19T12:09:39;3.93;;;1.60;;
11151;SDS011;5630;49.342;10.802;2023-09-19T12:12:09;3.43;;;1.60;;
11151;SDS011;5630;49.342;10.802;2023-09-19T12:14:37;3.37;;;1.70;;
11151;SDS011;5630;49.342;10.802;2023-09-19T12:17:06;5.33;;;1.83;;
11151;SDS011;5630;49.342;10.802;2023-09-19T12:19:31;4.03;;;1.60;;
11151;SDS011;5630;49.342;10.802;2023-09-19T12:22:00;3.03;;;1.83;;
11151;SDS011;5630;49.342;10.802;2023-09-19T12:24:30;4.60;;;1.80;;
11151;SDS011;5630;49.342;10.802;2023-09-19T12:27:00;8.47;;;1.83;;
11151;SDS011;5630;49.342;10.802;2023-09-19T12:29:30;4.20;;;1.60;;
11151;SDS011;5630;49.342;10.802;2023-09-19T12:31:59;2.60;;;1.57;;
11151;SDS011;5630;49.342;10.802;2023-09-19T12:34:31;2.80;;;1.80;;
11151;SDS011;5630;49.342;10.802;2023-09-19T12:37:04;3.67;;;1.60;;
11151;SDS011;5630;49.342;10.802;2023-09-19T12:40:02;3.70;;;1.70;;
11151;SDS011;5630;49.342;10.802;2023-09-19T12:42:42;4.17;;;1.60;;
11151;SDS011;5630;49.342;10.802;2023-09-19T12:45:11;6.47;;;1.73;;
11151;SDS011;5630;49.342;10.802;2023-09-19T12:47:40;2.60;;;1.90;;
11151;SDS011;5630;49.342;10.802;2023-09-19T12:50:26;6.03;;;1.87;;
11151;SDS011;5630;49.342;10.802;2023-09-19T12:52:54;4.27;;;1.77;;
11151;SDS011;5630;49.342;10.802;2023-09-19T13:00:43;4.23;;;1.90;;
11151;SDS011;5630;49.342;10.802;2023-09-19T13:05:56;3.07;;;1.60;;
11151;SDS011;5630;49.342;10.802;2023-09-19T13:08:25;2.43;;;1.53;;
11151;SDS011;5630;49.342;10.802;2023-09-19T13:11:10;7.77;;;1.90;;
11151;SDS011;5630;49.342;10.802;2023-09-19T13:13:47;3.77;;;1.90;;
11151;SDS011;5630;49.342;10.802;2023-09-19T13:16:18;1.87;;;1.40;;
11151;SDS011;5630;49.342;10.802;2023-09-19T13:18:54;2.03;;;1.70;;
11151;SDS011;5630;49.342;10.802;2023-09-19T13:21:29;3.27;;;1.77;;
11151;SDS011;5630;49.342;10.802;2023-09-19T13:24:21;2.77;;;1.70;;
11151;SDS011;5630;49.342;10.802;2023-09-19T13:26:50;2.83;;;1.70;;
11151;SDS011;5630;49.342;10.802;2023-09-19T13:29:16;2.70;;;1.57;;
11151;SDS011;5630;49.342;10.802;2023-09-19T13:31:50;3.53;;;1.93;;
11151;SDS011;5630;49.342;10.802;2023-09-19T13:34:17;4.00;;;1.60;;
11151;SDS011;5630;49.342;10.802;2023-09-19T13:36:44;3.03;;;1.70;;
11151;SDS011;5630;49.342;10.802;2023-09-19T13:39:13;4.70;;;1.80;;
11151;SDS011;5630;49.342;10.802;2023-09-19T13:41:41;3.07;;;1.60;;
11151;SDS011;5630;49.342;10.802;2023-09-19T13:44:09;2.60;;;1.53;;
11151;SDS011;5630;49.342;10.802;2023-09-19T13:46:37;2.87;;;1.70;;
11151;SDS011;5630;49.342;10.802;2023-09-19T13:49:03;7.93;;;1.60;;
11151;SDS011;5630;49.342;10.802;2023-09-19T13:51:30;3.13;;;1.80;;
11151;SDS011;5630;49.342;10.802;2023-09-19T13:53:56;4.77;;;1.70;;
11151;SDS011;5630;49.342;10.802;2023-09-19T13:56:21;5.43;;;1.53;;
11151;SDS011;5630;49.342;10.802;2023-09-19T13:58:47;5.10;;;1.90;;
11151;SDS011;5630;49.342;10.802;2023-09-19T14:01:13;4.73;;;1.90;;
11151;SDS011;5630;49.342;10.802;2023-09-19T14:03:39;5.03;;;1.43;;
11151;SDS011;5630;49.342;10.802;2023-09-19T14:06:05;3.63;;;1.80;;
11151;SDS011;5630;49.342;10.802;2023-09-19T14:08:31;13.57;;;1.87;;
11151;SDS011;5630;49.342;10.802;2023-09-19T14:10:59;2.43;;;1.80;;
11151;SDS011;5630;49.342;10.802;2023-09-19T14:13:30;2.23;;;1.50;;
11151;SDS011;5630;49.342;10.802;2023-09-19T14:15:55;2.70;;;1.60;;
11151;SDS011;5630;49.342;10.802;2023-09-19T14:18:21;6.27;;;1.60;;
11151;SDS011;5630;49.342;10.802;2023-09-19T14:20:47;4.50;;;1.70;;
11151;SDS011;5630;49.342;10.802;2023-09-19T14:23:12;3.77;;;1.70;;
11151;SDS011;5630;49.342;10.802;2023-09-19T14:25:38;3.23;;;1.90;;
11151;SDS011;5630;49.342;10.802;2023-09-19T14:28:04;2.27;;;1.70;;
11151;SDS011;5630;49.342;10.802;2023-09-19T14:30:30;2.37;;;1.57;;
11151;SDS011;5630;49.342;10.802;2023-09-19T14:32:57;4.33;;;1.60;;
11151;SDS011;5630;49.342;10.802;2023-09-19T14:35:22;3.70;;;1.87;;
11151;SDS011;5630;49.342;10.802;2023-09-19T14:37:48;2.70;;;1.60;;
11151;SDS011;5630;49.342;10.802;2023-09-19T14:40:14;2.87;;;1.70;;
11151;SDS011;5630;49.342;10.802;2023-09-19T14:42:42;2.47;;;1.70;;
11151;SDS011;5630;49.342;10.802;2023-09-19T14:45:10;5.87;;;1.80;;
11151;SDS011;5630;49.342;10.802;2023-09-19T14:47:36;2.77;;;1.70;;
11151;SDS011;5630;49.342;10.802;2023-09-19T14:50:03;2.67;;;1.50;;
11151;SDS011;5630;49.342;10.802;2023-09-19T14:52:31;3.47;;;1.53;;
11151;SDS011;5630;49.342;10.802;2023-09-19T14:54:58;2.03;;;1.40;;
11151;SDS011;5630;49.342;10.802;2023-09-19T14:57:24;3.33;;;1.70;;
11151;SDS011;5630;49.342;10.802;2023-09-19T14:59:51;2.33;;;1.80;;
11151;SDS011;5630;49.342;10.802;2023-09-19T15:02:16;3.17;;;1.93;;
11151;SDS011;5630;49.342;10.802;2023-09-19T15:04:42;2.90;;;1.70;;
11151;SDS011;5630;49.342;10.802;2023-09-19T15:07:13;8.33;;;1.80;;
11151;SDS011;5630;49.342;10.802;2023-09-19T15:09:40;3.23;;;1.70;;
11151;SDS011;5630;49.342;10.802;2023-09-19T15:12:08;2.83;;;1.60;;
11151;SDS011;5630;49.342;10.802;2023-09-19T15:14:34;2.03;;;1.60;;
11151;SDS011;5630;49.342;10.802;2023-09-19T15:16:59;3.13;;;1.67;;
11151;SDS011;5630;49.342;10.802;2023-09-19T15:19:25;3.87;;;1.70;;
11151;SDS011;5630;49.342;10.802;2023-09-19T15:21:50;4.47;;;1.90;;
11151;SDS011;5630;49.342;10.802;2023-09-19T15:24:16;4.37;;;1.70;;
11151;SDS011;5630;49.342;10.802;2023-09-19T15:26:43;3.77;;;1.40;;
11151;SDS011;5630;49.342;10.802;2023-09-19T15:29:09;3.30;;;1.97;;
11151;SDS011;5630;49.342;10.802;2023-09-19T15:31:35;1.73;;;1.60;;
11151;SDS011;5630;49.342;10.802;2023-09-19T15:34:02;4.00;;;1.63;;
11151;SDS011;5630;49.342;10.802;2023-09-19T15:36:28;2.07;;;1.43;;
11151;SDS011;5630;49.342;10.802;2023-09-19T15:39:12;2.47;;;1.60;;
11151;SDS011;5630;49.342;10.802;2023-09-19T15:41:40;2.93;;;1.60;;
11151;SDS011;5630;49.342;10.802;2023-09-19T15:44:11;2.60;;;1.70;;
11151;SDS011;5630;49.342;10.802;2023-09-19T15:46:38;4.20;;;1.77;;
11151;SDS011;5630;49.342;10.802;2023-09-19T15:49:04;2.83;;;1.63;;